createdAt,value
2023-01-30T00:00:56.351Z,3.02
2023-01-30T00:03:24.428Z,2.86
2023-01-30T00:05:51.329Z,3.02
2023-01-30T00:08:18.652Z,2.70
2023-01-30T00:10:46.218Z,3.06
2023-01-30T00:13:17.153Z,3.08
2023-01-30T00:15:44.070Z,3.20
2023-01-30T00:18:10.731Z,3.14
2023-01-30T00:20:37.593Z,3.19
2023-01-30T00:23:04.605Z,3.05
2023-01-30T00:25:31.722Z,3.17
2023-01-30T00:28:02.092Z,3.04
2023-01-30T00:30:29.572Z,2.80
2023-01-30T00:32:57.961Z,3.19
2023-01-30T00:35:28.605Z,2.26
2023-01-30T00:37:59.552Z,3.25
2023-01-30T00:40:27.753Z,3.26
2023-01-30T00:43:13.445Z,1.22
2023-01-30T00:46:01.715Z,3.23
2023-01-30T00:48:29.031Z,3.22
2023-01-30T00:50:55.767Z,2.69
2023-01-30T00:53:22.431Z,3.02
2023-01-30T00:55:51.425Z,2.80
2023-01-30T00:58:18.647Z,2.89
2023-01-30T01:00:45.279Z,2.85
2023-01-30T01:03:11.916Z,2.54
2023-01-30T01:05:38.967Z,2.78
2023-01-30T01:08:05.796Z,2.91
2023-01-30T01:10:32.910Z,2.86
2023-01-30T01:12:59.657Z,2.53
2023-01-30T01:15:27.060Z,2.97
2023-01-30T01:17:54.615Z,2.52
2023-01-30T01:20:22.342Z,3.01
2023-01-30T01:22:52.528Z,1.42
2023-01-30T01:25:19.660Z,2.74
2023-01-30T01:27:47.187Z,3.15
2023-01-30T01:30:14.522Z,3.07
2023-01-30T01:32:41.106Z,3.15
2023-01-30T01:35:08.066Z,2.67
2023-01-30T01:37:34.799Z,3.13
2023-01-30T01:40:19.845Z,2.93
2023-01-30T01:42:46.407Z,2.40
2023-01-30T01:45:24.577Z,2.94
2023-01-30T01:48:04.758Z,2.90
2023-01-30T01:50:53.579Z,2.19
2023-01-30T01:53:26.119Z,2.67
2023-01-30T01:55:55.637Z,2.85
2023-01-30T01:58:47.908Z,0.71
2023-01-30T02:01:15.020Z,2.84
2023-01-30T02:03:47.188Z,3.05
2023-01-30T02:06:15.365Z,3.11
2023-01-30T02:08:48.138Z,-0.52
2023-01-30T02:11:18.859Z,2.89
2023-01-30T02:13:50.650Z,3.06
2023-01-30T02:16:18.196Z,3.03
2023-01-30T02:18:47.345Z,2.94
2023-01-30T02:21:51.037Z,3.03
2023-01-30T02:24:44.950Z,3.07
2023-01-30T02:27:27.350Z,2.90
2023-01-30T02:30:38.736Z,2.90
2023-01-30T02:33:25.150Z,3.00
2023-01-30T02:36:03.554Z,2.97
2023-01-30T02:38:30.079Z,3.02
2023-01-30T02:41:05.724Z,3.04
2023-01-30T02:43:57.205Z,3.00
2023-01-30T02:46:32.365Z,3.01
2023-01-30T02:49:19.162Z,2.99
2023-01-30T02:51:49.494Z,3.04
2023-01-30T02:54:16.581Z,2.96
2023-01-30T02:56:49.947Z,2.78
2023-01-30T02:59:22.521Z,3.01
2023-01-30T03:02:07.550Z,2.94
2023-01-30T03:04:52.416Z,3.04
2023-01-30T03:07:28.058Z,3.03
2023-01-30T03:10:09.807Z,3.16
2023-01-30T03:12:51.573Z,3.14
2023-01-30T03:15:33.847Z,3.18
2023-01-30T03:18:02.030Z,3.03
2023-01-30T03:20:28.731Z,3.11
2023-01-30T03:22:55.656Z,2.74
2023-01-30T03:25:26.651Z,2.97
2023-01-30T03:27:55.528Z,2.96
2023-01-30T03:30:24.872Z,3.10
2023-01-30T03:32:51.425Z,3.11
2023-01-30T03:35:18.469Z,2.76
2023-01-30T03:37:46.178Z,2.31
2023-01-30T03:40:14.610Z,2.56
2023-01-30T03:42:41.943Z,2.61
2023-01-30T03:45:09.904Z,2.74
2023-01-30T03:47:36.547Z,2.36
2023-01-30T03:50:03.345Z,2.79
2023-01-30T03:52:29.956Z,2.85
2023-01-30T03:54:56.563Z,2.89
2023-01-30T03:57:23.139Z,2.65
2023-01-30T03:59:49.727Z,2.92
2023-01-30T04:02:20.832Z,3.00
2023-01-30T04:04:47.507Z,3.02
2023-01-30T04:07:14.127Z,2.94
2023-01-30T04:09:40.791Z,2.90
2023-01-30T04:12:07.835Z,2.74
2023-01-30T04:14:34.416Z,2.73
2023-01-30T04:17:00.998Z,2.76
2023-01-30T04:19:27.585Z,2.66
2023-01-30T04:21:54.122Z,2.45
2023-01-30T04:24:20.664Z,2.65
2023-01-30T04:26:47.315Z,2.63
2023-01-30T04:29:13.985Z,2.62
2023-01-30T04:31:40.636Z,2.07
2023-01-30T04:34:07.384Z,2.18
2023-01-30T04:36:33.985Z,2.58
2023-01-30T04:39:00.545Z,2.06
2023-01-30T04:41:27.059Z,2.53
2023-01-30T04:43:53.654Z,2.59
2023-01-30T04:46:20.275Z,2.45
2023-01-30T04:48:46.856Z,2.45
2023-01-30T04:51:13.456Z,2.57
2023-01-30T04:53:40.079Z,2.62
2023-01-30T04:56:07.289Z,2.57
2023-01-30T04:58:33.884Z,2.66
2023-01-30T05:01:13.983Z,2.56
2023-01-30T05:03:40.640Z,2.50
2023-01-30T05:06:07.581Z,2.27
2023-01-30T05:08:34.191Z,2.57
2023-01-30T05:11:00.772Z,2.57
2023-01-30T05:13:27.399Z,2.12
2023-01-30T05:15:53.967Z,2.68
2023-01-30T05:18:20.495Z,2.03
2023-01-30T05:20:47.038Z,2.43
2023-01-30T05:23:13.739Z,2.82
2023-01-30T05:25:40.352Z,2.82
2023-01-30T05:28:07.019Z,2.82
2023-01-30T05:30:33.726Z,2.33
2023-01-30T05:33:00.373Z,2.33
2023-01-30T05:35:26.954Z,2.40
2023-01-30T05:37:53.610Z,2.48
2023-01-30T05:40:20.188Z,2.47
2023-01-30T05:42:46.715Z,2.32
2023-01-30T05:45:13.335Z,2.45
2023-01-30T05:47:39.985Z,2.03
2023-01-30T05:50:06.785Z,1.92
2023-01-30T05:52:33.381Z,2.31
2023-01-30T05:54:59.918Z,2.46
2023-01-30T05:57:26.493Z,2.52
2023-01-30T05:59:53.030Z,2.50
2023-01-30T06:02:19.622Z,2.53
2023-01-30T06:04:46.220Z,2.58
2023-01-30T06:07:14.468Z,2.26
2023-01-30T06:09:41.035Z,2.52
2023-01-30T06:12:07.977Z,2.46
2023-01-30T06:14:34.609Z,2.20
2023-01-30T06:17:01.227Z,2.35
2023-01-30T06:19:27.836Z,2.25
2023-01-30T06:21:54.390Z,2.21
2023-01-30T06:24:20.987Z,2.30
2023-01-30T06:26:47.671Z,2.37
2023-01-30T06:29:14.365Z,2.46
2023-01-30T06:31:41.171Z,2.31
2023-01-30T06:34:07.938Z,1.33
2023-01-30T06:36:34.993Z,2.15
2023-01-30T06:39:01.595Z,2.44
2023-01-30T06:41:28.158Z,2.19
2023-01-30T06:43:55.643Z,2.29
2023-01-30T06:46:22.206Z,2.28
2023-01-30T06:48:48.846Z,2.31
2023-01-30T06:51:15.500Z,1.66
2023-01-30T06:53:42.111Z,1.97
2023-01-30T06:56:08.708Z,2.22
2023-01-30T06:58:35.349Z,2.21
2023-01-30T07:01:02.482Z,2.15
2023-01-30T07:03:29.227Z,2.10
2023-01-30T07:05:55.840Z,1.11
2023-01-30T07:08:24.219Z,2.21
2023-01-30T07:10:51.299Z,2.18
2023-01-30T07:13:17.947Z,2.10
2023-01-30T07:15:45.611Z,2.12
2023-01-30T07:18:12.552Z,2.10
2023-01-30T07:20:39.213Z,2.57
2023-01-30T07:23:05.873Z,2.62
2023-01-30T07:25:32.494Z,2.37
2023-01-30T07:28:01.150Z,2.61
2023-01-30T07:30:30.834Z,2.67
2023-01-30T07:32:59.944Z,2.71
2023-01-30T07:35:28.702Z,2.27
2023-01-30T07:37:55.529Z,2.75
2023-01-30T07:40:23.003Z,2.75
2023-01-30T07:43:02.190Z,2.75
2023-01-30T07:45:34.708Z,2.32
2023-01-30T07:48:01.315Z,2.90
2023-01-30T07:50:28.013Z,2.90
2023-01-30T07:52:54.631Z,2.97
2023-01-30T07:55:21.432Z,3.14
2023-01-30T07:57:48.156Z,2.43
2023-01-30T08:00:15.417Z,3.21
2023-01-30T08:02:42.367Z,3.26
2023-01-30T08:05:09.302Z,3.46
2023-01-30T08:07:35.905Z,3.57
2023-01-30T08:10:02.614Z,3.70
2023-01-30T08:12:29.259Z,3.52
2023-01-30T08:14:56.071Z,2.64
2023-01-30T08:17:22.895Z,3.62
2023-01-30T08:19:49.609Z,3.66
2023-01-30T08:22:16.406Z,1.43
2023-01-30T08:24:43.133Z,3.87
2023-01-30T08:27:09.983Z,3.55
2023-01-30T08:29:36.598Z,3.76
2023-01-30T08:32:03.302Z,4.16
2023-01-30T08:34:30.002Z,4.36
2023-01-30T08:36:56.572Z,4.47
2023-01-30T08:39:23.199Z,4.33
2023-01-30T08:41:50.074Z,3.96
2023-01-30T08:44:16.713Z,4.55
2023-01-30T08:46:43.431Z,3.70
2023-01-30T08:49:11.317Z,4.63
2023-01-30T08:51:38.240Z,4.73
2023-01-30T08:54:07.529Z,4.88
2023-01-30T08:56:34.463Z,4.91
2023-01-30T08:59:01.177Z,4.42
2023-01-30T09:01:27.756Z,5.37
2023-01-30T09:03:54.437Z,5.28
2023-01-30T09:06:21.064Z,5.69
2023-01-30T09:08:47.704Z,4.86
2023-01-30T09:11:14.345Z,5.14
2023-01-30T09:13:44.686Z,5.44
2023-01-30T09:16:12.307Z,5.10
2023-01-30T09:18:40.896Z,5.85
2023-01-30T09:21:08.656Z,6.02
2023-01-30T09:23:35.507Z,6.10
2023-01-30T09:26:02.781Z,5.96
2023-01-30T09:28:29.877Z,6.20
2023-01-30T09:30:58.599Z,6.09
2023-01-30T09:33:25.444Z,5.28
2023-01-30T09:35:52.736Z,5.01
2023-01-30T09:38:20.175Z,5.75
2023-01-30T09:41:15.687Z,5.74
2023-01-30T09:43:51.051Z,5.57
2023-01-30T09:46:48.487Z,5.52
2023-01-30T09:49:46.078Z,5.71
2023-01-30T09:52:33.062Z,5.47
2023-01-30T09:55:14.751Z,5.43
2023-01-30T09:57:41.726Z,5.52
2023-01-30T10:00:24.966Z,5.61
2023-01-30T10:03:04.751Z,3.66
2023-01-30T10:05:40.699Z,5.34
2023-01-30T10:08:32.038Z,5.58
2023-01-30T10:11:11.815Z,5.58
2023-01-30T10:13:59.693Z,5.82
2023-01-30T10:16:54.474Z,5.49
2023-01-30T10:20:11.988Z,5.94
2023-01-30T10:23:02.192Z,5.94
2023-01-30T10:25:49.770Z,5.92
2023-01-30T10:28:24.021Z,6.03
2023-01-30T10:30:55.533Z,5.84
2023-01-30T10:33:31.122Z,6.30
2023-01-30T10:36:08.255Z,6.32
2023-01-30T10:38:47.807Z,6.46
2023-01-30T10:41:17.426Z,6.44
2023-01-30T10:44:08.120Z,6.43
2023-01-30T10:46:40.672Z,6.37
2023-01-30T10:49:23.172Z,6.26
2023-01-30T10:52:15.442Z,6.02
2023-01-30T10:54:52.428Z,6.58
2023-01-30T10:57:52.623Z,6.51
2023-01-30T11:00:27.913Z,6.39
2023-01-30T11:03:00.519Z,6.01
2023-01-30T11:05:49.509Z,6.40
2023-01-30T11:08:30.904Z,6.38
2023-01-30T11:10:58.418Z,6.48
2023-01-30T11:13:31.116Z,5.99
2023-01-30T11:16:03.845Z,6.30
2023-01-30T11:19:17.848Z,6.28
2023-01-30T11:21:32.025Z,6.40
2023-01-30T11:24:17.138Z,5.52
2023-01-30T11:26:47.913Z,6.24
2023-01-30T11:29:38.037Z,3.92
2023-01-30T11:32:11.668Z,6.05
2023-01-30T11:34:38.630Z,6.02
2023-01-30T11:37:27.402Z,6.56
2023-01-30T11:39:54.445Z,6.45
2023-01-30T11:42:27.443Z,6.23
2023-01-30T11:45:15.637Z,5.75
2023-01-30T11:48:04.070Z,5.86
2023-01-30T11:50:41.931Z,5.85
2023-01-30T11:53:45.124Z,5.63
2023-01-30T11:56:17.075Z,5.76
2023-01-30T11:58:49.963Z,5.47
2023-01-30T12:01:17.368Z,5.65
2023-01-30T12:03:55.057Z,5.57
2023-01-30T12:06:30.823Z,5.63
2023-01-30T12:08:57.750Z,5.47
2023-01-30T12:11:31.968Z,5.51
2023-01-30T12:14:36.733Z,5.40
2023-01-30T12:17:16.191Z,5.95
2023-01-30T12:19:48.450Z,6.02
2023-01-30T12:22:23.310Z,5.97
2023-01-30T12:24:59.271Z,5.96
2023-01-30T12:27:42.659Z,5.19
2023-01-30T12:30:12.110Z,6.21
2023-01-30T12:32:39.012Z,6.22
2023-01-30T12:35:18.491Z,5.36
2023-01-30T12:38:07.007Z,6.10
2023-01-30T12:41:08.891Z,6.11
2023-01-30T12:43:50.800Z,6.15
2023-01-30T12:46:26.756Z,5.95
2023-01-30T12:49:12.338Z,5.99
2023-01-30T12:51:54.370Z,5.87
2023-01-30T12:54:53.594Z,5.87
2023-01-30T12:57:26.580Z,5.80
2023-01-30T13:00:37.782Z,5.73
2023-01-30T13:03:26.200Z,5.61
2023-01-30T13:06:14.670Z,5.54
2023-01-30T13:08:47.307Z,5.61
2023-01-30T13:11:29.039Z,5.64
2023-01-30T13:14:07.959Z,5.62
2023-01-30T13:16:40.708Z,5.60
2023-01-30T13:19:20.907Z,5.59
2023-01-30T13:22:09.059Z,5.54
2023-01-30T13:24:49.458Z,5.36
2023-01-30T13:27:21.360Z,5.64
2023-01-30T13:29:49.175Z,5.50
2023-01-30T13:32:41.459Z,5.48
2023-01-30T13:35:17.449Z,5.33
2023-01-30T13:37:47.528Z,5.18
2023-01-30T13:40:22.233Z,5.28
2023-01-30T13:43:12.090Z,5.37
2023-01-30T13:45:46.292Z,4.07
2023-01-30T13:48:37.561Z,5.39
2023-01-30T13:51:13.443Z,5.25
2023-01-30T13:53:59.104Z,5.09
2023-01-30T13:56:42.783Z,4.90
2023-01-30T13:59:18.828Z,4.59
2023-01-30T14:02:07.319Z,4.54
2023-01-30T14:04:48.959Z,4.20
2023-01-30T14:07:24.392Z,3.98
2023-01-30T14:10:04.411Z,4.39
2023-01-30T14:12:37.517Z,3.91
2023-01-30T14:15:24.086Z,4.64
2023-01-30T14:18:03.056Z,4.75
2023-01-30T14:20:43.283Z,4.65
2023-01-30T14:23:21.466Z,4.59
2023-01-30T14:25:53.428Z,4.58
2023-01-30T14:28:19.910Z,4.44
2023-01-30T14:30:48.181Z,4.25
2023-01-30T14:33:23.807Z,4.17
2023-01-30T14:36:16.365Z,4.33
2023-01-30T14:38:45.334Z,3.87
2023-01-30T14:41:24.032Z,4.22
2023-01-30T14:43:53.538Z,4.12
2023-01-30T14:46:20.440Z,4.26
2023-01-30T14:48:53.439Z,4.25
2023-01-30T14:51:40.457Z,3.53
2023-01-30T14:54:13.538Z,4.15
2023-01-30T14:57:00.184Z,1.58
2023-01-30T14:59:29.573Z,4.24
2023-01-30T15:01:58.911Z,4.34
2023-01-30T15:04:51.214Z,4.27
2023-01-30T15:07:27.497Z,4.09
2023-01-30T15:09:58.708Z,3.65
2023-01-30T15:13:03.082Z,4.03
2023-01-30T15:15:43.704Z,3.86
2023-01-30T15:18:32.384Z,3.94
2023-01-30T15:21:37.559Z,4.05
2023-01-30T15:24:27.346Z,3.84
2023-01-30T15:27:42.159Z,3.75
2023-01-30T15:30:34.931Z,3.61
2023-01-30T15:33:29.283Z,3.69
2023-01-30T15:35:56.971Z,3.70
2023-01-30T15:38:28.153Z,3.66
2023-01-30T15:40:58.248Z,3.76
2023-01-30T15:43:53.545Z,3.69
2023-01-30T15:46:32.312Z,3.62
2023-01-30T15:49:27.785Z,3.44
2023-01-30T15:51:54.401Z,3.45
2023-01-30T15:54:24.169Z,3.07
2023-01-30T15:56:50.977Z,3.15
2023-01-30T15:59:36.343Z,2.73
2023-01-30T16:02:18.770Z,2.32
2023-01-30T16:04:45.401Z,2.03
2023-01-30T16:07:25.469Z,1.92
2023-01-30T16:10:07.193Z,1.87
2023-01-30T16:12:36.566Z,1.94
2023-01-30T16:15:17.483Z,1.87
2023-01-30T16:18:11.983Z,1.92
2023-01-30T16:21:01.198Z,2.04
2023-01-30T16:23:43.230Z,1.72
2023-01-30T16:26:17.910Z,1.87
2023-01-30T16:28:45.287Z,1.63
2023-01-30T16:31:12.256Z,1.18
2023-01-30T16:33:38.945Z,1.60
2023-01-30T16:36:26.735Z,1.47
2023-01-30T16:38:55.179Z,1.60
2023-01-30T16:41:27.505Z,1.68
2023-01-30T16:44:20.056Z,1.21
2023-01-30T16:46:49.569Z,1.18
2023-01-30T16:49:36.422Z,1.33
2023-01-30T16:52:13.846Z,0.87
2023-01-30T16:54:47.957Z,1.42
2023-01-30T16:57:21.313Z,1.47
2023-01-30T16:59:47.943Z,1.61
2023-01-30T17:02:28.857Z,1.72
2023-01-30T17:04:55.714Z,1.80
2023-01-30T17:07:37.347Z,1.87
2023-01-30T17:10:04.267Z,1.97
2023-01-30T17:12:31.247Z,2.03
2023-01-30T17:15:10.093Z,2.03
2023-01-30T17:17:36.681Z,2.05
2023-01-30T17:20:03.716Z,2.07
2023-01-30T17:22:31.580Z,2.01
2023-01-30T17:25:02.861Z,2.34
2023-01-30T17:27:30.471Z,1.94
2023-01-30T17:29:57.298Z,2.36
2023-01-30T17:32:23.981Z,2.38
2023-01-30T17:34:50.563Z,2.26
2023-01-30T17:37:23.059Z,2.29
2023-01-30T17:39:49.736Z,2.31
2023-01-30T17:42:22.167Z,1.83
2023-01-30T17:44:49.589Z,2.26
2023-01-30T17:47:16.303Z,2.13
2023-01-30T17:49:43.006Z,1.75
2023-01-30T17:52:13.320Z,1.95
2023-01-30T17:54:40.921Z,1.00
2023-01-30T17:57:12.970Z,1.62
2023-01-30T17:59:39.578Z,1.58
2023-01-30T18:02:09.254Z,1.53
2023-01-30T18:04:35.896Z,1.53
2023-01-30T18:07:06.355Z,1.41
2023-01-30T18:09:33.034Z,1.35
2023-01-30T18:11:59.736Z,1.40
2023-01-30T18:14:26.490Z,1.32
2023-01-30T18:16:59.796Z,1.29
2023-01-30T18:19:28.234Z,1.32
2023-01-30T18:21:54.920Z,0.77
2023-01-30T18:24:21.499Z,1.21
2023-01-30T18:26:48.253Z,0.74
2023-01-30T18:29:15.358Z,1.06
2023-01-30T18:31:42.290Z,1.02
2023-01-30T18:34:10.964Z,0.99
2023-01-30T18:36:37.944Z,0.41
2023-01-30T18:39:05.890Z,0.80
2023-01-30T18:41:32.744Z,0.43
2023-01-30T18:44:01.638Z,0.73
2023-01-30T18:46:29.560Z,0.48
2023-01-30T18:48:56.799Z,0.69
2023-01-30T18:51:26.225Z,0.64
2023-01-30T18:53:54.046Z,0.08
2023-01-30T18:56:33.163Z,0.66
2023-01-30T18:59:03.200Z,0.63
2023-01-30T19:01:32.488Z,-0.07
2023-01-30T19:04:01.402Z,0.57
2023-01-30T19:06:29.117Z,0.53
2023-01-30T19:09:02.266Z,0.52
2023-01-30T19:11:47.627Z,0.38
2023-01-30T19:14:14.664Z,0.29
2023-01-30T19:16:41.402Z,0.16
2023-01-30T19:19:08.847Z,-0.13
2023-01-30T19:21:36.105Z,-0.20
2023-01-30T19:24:06.894Z,0.26
2023-01-30T19:26:34.210Z,0.03
2023-01-30T19:29:00.954Z,-0.13
2023-01-30T19:31:27.920Z,-0.16
2023-01-30T19:33:57.124Z,-0.08
2023-01-30T19:36:25.118Z,-0.07
2023-01-30T19:38:52.514Z,-0.10
2023-01-30T19:41:23.039Z,-0.15
2023-01-30T19:43:50.724Z,-0.21
2023-01-30T19:46:20.545Z,-0.59
2023-01-30T19:48:48.010Z,-0.22
2023-01-30T19:51:22.678Z,-0.25
2023-01-30T19:53:58.119Z,-0.24
2023-01-30T19:56:26.621Z,-0.87
2023-01-30T19:58:55.099Z,-0.36
2023-01-30T20:01:24.778Z,-1.65
2023-01-30T20:03:51.530Z,-0.31
2023-01-30T20:06:20.544Z,-0.33
2023-01-30T20:08:50.186Z,-0.35
2023-01-30T20:11:18.832Z,-0.34
2023-01-30T20:13:46.154Z,-0.56
2023-01-30T20:16:20.952Z,-0.37
2023-01-30T20:18:53.454Z,-0.41
2023-01-30T20:21:21.391Z,-0.51
2023-01-30T20:23:48.985Z,-0.52
2023-01-30T20:26:36.405Z,-0.46
2023-01-30T20:29:04.402Z,-0.44
2023-01-30T20:31:32.009Z,-0.45
2023-01-30T20:34:01.677Z,-0.47
2023-01-30T20:36:28.447Z,-0.38
2023-01-30T20:38:56.578Z,-0.43
2023-01-30T20:41:26.139Z,-0.42
2023-01-30T20:43:56.630Z,-0.44
2023-01-30T20:46:25.312Z,-0.60
2023-01-30T20:48:54.520Z,-0.96
2023-01-30T20:51:23.958Z,-0.71
2023-01-30T20:53:54.631Z,-0.68
2023-01-30T20:56:23.740Z,-0.92
2023-01-30T20:58:50.917Z,-1.17
2023-01-30T21:01:20.501Z,-0.59
2023-01-30T21:03:50.490Z,-0.91
2023-01-30T21:06:42.460Z,-0.87
2023-01-30T21:09:07.686Z,-0.81
2023-01-30T21:11:35.048Z,-0.84
2023-01-30T21:14:02.111Z,-0.76
2023-01-30T21:16:32.028Z,-1.26
2023-01-30T21:19:03.295Z,-0.60
2023-01-30T21:21:42.386Z,-0.48
2023-01-30T21:24:13.380Z,-0.41
2023-01-30T21:26:44.660Z,-0.34
2023-01-30T21:29:13.255Z,-0.44
2023-01-30T21:31:40.383Z,-0.15
2023-01-30T21:34:08.173Z,-0.56
2023-01-30T21:36:34.820Z,-0.15
2023-01-30T21:39:20.012Z,-0.76
2023-01-30T21:42:05.535Z,-0.73
2023-01-30T21:44:37.685Z,-0.42
2023-01-30T21:47:06.144Z,-0.20
2023-01-30T21:49:33.708Z,-0.24
2023-01-30T21:52:00.408Z,-0.30
2023-01-30T21:54:27.044Z,-0.13
2023-01-30T21:56:53.639Z,-0.72
2023-01-30T21:59:20.266Z,-0.34
2023-01-30T22:01:46.906Z,-0.52
2023-01-30T22:04:16.274Z,-0.13
2023-01-30T22:06:43.862Z,-0.07
2023-01-30T22:09:15.394Z,-0.02
2023-01-30T22:11:42.496Z,0.03
2023-01-30T22:14:09.410Z,-0.19
2023-01-30T22:16:36.295Z,-0.45
2023-01-30T22:19:04.823Z,-0.35
2023-01-30T22:21:38.544Z,-0.19
2023-01-30T22:24:07.564Z,-0.13
2023-01-30T22:26:34.428Z,-0.34
2023-01-30T22:29:03.308Z,0.13
2023-01-30T22:31:34.596Z,0.12
2023-01-30T22:34:03.356Z,0.27
2023-01-30T22:36:33.069Z,0.15
2023-01-30T22:38:59.772Z,0.29
2023-01-30T22:41:28.453Z,-0.17
2023-01-30T22:43:57.899Z,0.10
2023-01-30T22:46:27.163Z,-0.14
2023-01-30T22:48:54.871Z,0.04
2023-01-30T22:51:33.825Z,-0.32
2023-01-30T22:54:03.259Z,-0.10
2023-01-30T22:56:35.879Z,0.18
2023-01-30T22:59:03.334Z,0.20
2023-01-30T23:01:35.823Z,0.17
2023-01-30T23:04:06.949Z,0.20
2023-01-30T23:06:34.345Z,0.28
2023-01-30T23:09:01.564Z,0.32
2023-01-30T23:11:32.404Z,0.31
2023-01-30T23:14:11.795Z,0.15
2023-01-30T23:16:40.686Z,0.38
2023-01-30T23:19:08.864Z,0.44
2023-01-30T23:21:44.334Z,0.29
2023-01-30T23:24:12.147Z,0.37
2023-01-30T23:26:43.031Z,0.46
2023-01-30T23:29:13.325Z,0.43
2023-01-30T23:31:41.812Z,0.40
2023-01-30T23:34:13.575Z,0.04
2023-01-30T23:36:40.401Z,0.54
2023-01-30T23:39:07.129Z,-0.25
2023-01-30T23:41:36.524Z,0.45
2023-01-30T23:44:04.004Z,0.41
2023-01-30T23:46:33.766Z,0.09
2023-01-30T23:49:18.304Z,0.59
2023-01-30T23:51:45.384Z,0.61
2023-01-30T23:54:13.460Z,0.66
2023-01-30T23:56:43.113Z,0.65
2023-01-30T23:59:10.437Z,0.58
